createdAt,value
2019-02-23T00:00:37.464Z,3.05
2019-02-23T00:03:06.269Z,3.80
2019-02-23T00:05:35.130Z,3.77
2019-02-23T00:08:04.019Z,3.20
2019-02-23T00:10:32.873Z,3.05
2019-02-23T00:13:01.731Z,3.33
2019-02-23T00:15:30.637Z,3.30
2019-02-23T00:17:59.525Z,3.35
2019-02-23T00:20:28.377Z,3.67
2019-02-23T00:22:57.259Z,3.60
2019-02-23T00:25:36.783Z,3.95
2019-02-23T00:28:05.759Z,2.70
2019-02-23T00:30:34.565Z,2.95
2019-02-23T00:33:03.381Z,3.00
2019-02-23T00:35:32.225Z,3.27
2019-02-23T00:38:01.091Z,3.35
2019-02-23T00:40:29.890Z,3.17
2019-02-23T00:42:58.758Z,2.92
2019-02-23T00:45:27.578Z,4.10
2019-02-23T00:47:56.366Z,3.20
2019-02-23T00:50:25.237Z,3.35
2019-02-23T00:52:54.045Z,3.50
2019-02-23T00:55:23.041Z,3.00
2019-02-23T00:57:51.847Z,4.10
2019-02-23T01:00:20.877Z,3.27
2019-02-23T01:02:49.801Z,3.08
2019-02-23T01:05:18.603Z,4.05
2019-02-23T01:07:47.409Z,3.17
2019-02-23T01:10:16.231Z,3.50
2019-02-23T01:12:45.141Z,3.10
2019-02-23T01:15:14.201Z,3.25
2019-02-23T01:17:43.132Z,3.15
2019-02-23T01:20:12.226Z,3.75
2019-02-23T01:22:41.179Z,2.83
2019-02-23T01:25:10.195Z,3.70
2019-02-23T01:27:39.102Z,3.22
2019-02-23T01:30:10.614Z,3.35
2019-02-23T01:32:39.434Z,2.83
2019-02-23T01:35:08.305Z,3.33
2019-02-23T01:37:37.141Z,4.22
2019-02-23T01:40:08.137Z,4.12
2019-02-23T01:42:36.979Z,3.95
2019-02-23T01:45:06.277Z,3.72
2019-02-23T01:47:35.213Z,3.35
2019-02-23T01:50:04.243Z,4.67
2019-02-23T01:52:33.017Z,3.85
2019-02-23T01:55:01.894Z,3.35
2019-02-23T01:57:30.667Z,3.75
2019-02-23T01:59:59.548Z,3.42
2019-02-23T02:02:28.343Z,2.90
2019-02-23T02:04:57.265Z,3.35
2019-02-23T02:07:26.273Z,3.85
2019-02-23T02:09:55.213Z,3.10
2019-02-23T02:12:24.418Z,3.40
2019-02-23T02:14:53.368Z,3.80
2019-02-23T02:17:22.334Z,3.35
2019-02-23T02:19:51.254Z,3.40
2019-02-23T02:22:20.082Z,3.30
2019-02-23T02:24:48.870Z,3.80
2019-02-23T02:27:17.863Z,2.95
2019-02-23T02:29:46.821Z,3.33
2019-02-23T02:32:15.722Z,3.35
2019-02-23T02:34:44.577Z,3.70
2019-02-23T02:37:13.349Z,3.80
2019-02-23T02:39:42.091Z,3.83
2019-02-23T02:42:10.961Z,3.30
2019-02-23T02:44:39.750Z,3.05
2019-02-23T02:47:08.600Z,3.35
2019-02-23T02:49:37.556Z,4.33
2019-02-23T02:52:06.462Z,3.83
2019-02-23T02:54:35.316Z,3.83
2019-02-23T02:57:04.290Z,3.75
2019-02-23T02:59:33.289Z,4.20
2019-02-23T03:02:02.158Z,3.30
2019-02-23T03:04:31.192Z,4.30
2019-02-23T03:07:00.039Z,4.70
2019-02-23T03:09:28.953Z,3.30
2019-02-23T03:11:57.812Z,3.95
2019-02-23T03:14:26.637Z,4.00
2019-02-23T03:16:55.520Z,3.47
2019-02-23T03:19:24.547Z,4.87
2019-02-23T03:21:53.414Z,3.83
2019-02-23T03:24:22.287Z,4.20
2019-02-23T03:26:51.210Z,4.17
2019-02-23T03:29:20.081Z,4.37
2019-02-23T03:31:51.030Z,4.83
2019-02-23T03:34:19.960Z,4.75
2019-02-23T03:36:48.882Z,4.70
2019-02-23T03:39:17.731Z,4.12
2019-02-23T03:41:46.863Z,5.15
2019-02-23T03:44:15.716Z,4.53
2019-02-23T03:46:44.784Z,4.03
2019-02-23T03:49:13.730Z,4.35
2019-02-23T03:51:42.962Z,4.58
2019-02-23T03:54:12.044Z,4.60
2019-02-23T03:56:41.002Z,4.70
2019-02-23T03:59:09.884Z,4.62
2019-02-23T04:01:38.808Z,4.45
2019-02-23T04:04:07.751Z,4.58
2019-02-23T04:06:36.607Z,5.67
2019-02-23T04:09:06.214Z,4.30
2019-02-23T04:11:35.174Z,4.60
2019-02-23T04:14:03.972Z,5.05
2019-02-23T04:16:32.940Z,5.28
2019-02-23T04:19:01.956Z,4.70
2019-02-23T04:21:30.742Z,4.53
2019-02-23T04:23:59.610Z,5.03
2019-02-23T04:26:28.538Z,4.67
2019-02-23T04:28:57.323Z,5.00
2019-02-23T04:31:26.186Z,5.03
2019-02-23T04:33:55.174Z,5.58
2019-02-23T04:36:23.992Z,5.47
2019-02-23T04:38:52.800Z,4.67
2019-02-23T04:41:21.641Z,4.83
2019-02-23T04:43:50.836Z,4.20
2019-02-23T04:46:19.936Z,4.83
2019-02-23T04:48:48.810Z,5.70
2019-02-23T04:51:17.706Z,4.90
2019-02-23T04:53:46.567Z,5.75
2019-02-23T04:56:16.906Z,5.80
2019-02-23T04:58:45.783Z,5.55
2019-02-23T05:01:14.675Z,4.85
2019-02-23T05:03:43.806Z,5.10
2019-02-23T05:06:12.977Z,5.33
2019-02-23T05:08:41.879Z,4.90
2019-02-23T05:11:10.772Z,5.00
2019-02-23T05:13:39.742Z,5.37
2019-02-23T05:16:08.710Z,4.03
2019-02-23T05:18:37.580Z,4.60
2019-02-23T05:21:06.439Z,5.30
2019-02-23T05:23:35.236Z,6.05
2019-02-23T05:26:04.073Z,5.03
2019-02-23T05:28:32.867Z,5.00
2019-02-23T05:31:01.725Z,5.00
2019-02-23T05:33:30.512Z,5.05
2019-02-23T05:35:59.410Z,7.08
2019-02-23T05:38:28.222Z,4.97
2019-02-23T05:40:56.980Z,4.75
2019-02-23T05:43:25.942Z,4.90
2019-02-23T05:45:54.898Z,6.10
2019-02-23T05:48:23.757Z,5.10
2019-02-23T05:50:52.611Z,5.60
2019-02-23T05:53:21.544Z,5.95
2019-02-23T05:55:50.400Z,5.72
2019-02-23T05:58:20.916Z,5.45
2019-02-23T06:00:49.825Z,5.80
2019-02-23T06:03:18.916Z,5.30
2019-02-23T06:05:47.803Z,5.67
2019-02-23T06:08:16.737Z,5.03
2019-02-23T06:10:45.716Z,5.97
2019-02-23T06:13:14.671Z,6.40
2019-02-23T06:15:43.523Z,5.37
2019-02-23T06:18:12.531Z,5.75
2019-02-23T06:20:41.519Z,5.15
2019-02-23T06:23:10.557Z,4.45
2019-02-23T06:25:39.473Z,5.22
2019-02-23T06:28:08.487Z,5.67
2019-02-23T06:30:37.483Z,5.33
2019-02-23T06:33:06.262Z,5.72
2019-02-23T06:35:35.136Z,5.97
2019-02-23T06:38:04.135Z,5.83
2019-02-23T06:40:32.950Z,6.95
2019-02-23T06:43:01.918Z,5.92
2019-02-23T06:45:30.806Z,5.95
2019-02-23T06:47:59.775Z,5.55
2019-02-23T06:50:28.846Z,5.65
2019-02-23T06:52:57.778Z,6.40
2019-02-23T06:55:26.769Z,7.28
2019-02-23T06:57:55.722Z,5.62
2019-02-23T07:00:24.539Z,5.67
2019-02-23T07:02:53.322Z,5.80
2019-02-23T07:05:22.290Z,5.35
2019-02-23T07:07:51.286Z,5.70
2019-02-23T07:10:20.202Z,5.40
2019-02-23T07:12:49.036Z,6.20
2019-02-23T07:15:19.726Z,4.92
2019-02-23T07:17:48.766Z,6.67
2019-02-23T07:20:17.608Z,6.70
2019-02-23T07:22:46.518Z,6.45
2019-02-23T07:25:15.540Z,6.25
2019-02-23T07:27:44.357Z,6.03
2019-02-23T07:30:13.219Z,6.30
2019-02-23T07:32:42.214Z,6.37
2019-02-23T07:35:11.393Z,6.03
2019-02-23T07:37:40.598Z,6.22
2019-02-23T07:40:09.809Z,7.42
2019-02-23T07:42:38.787Z,5.35
2019-02-23T07:45:08.091Z,5.53
2019-02-23T07:47:36.929Z,6.80
2019-02-23T07:50:07.572Z,6.40
2019-02-23T07:52:36.910Z,5.37
2019-02-23T07:55:06.110Z,5.42
2019-02-23T07:57:35.078Z,7.05
2019-02-23T08:00:04.117Z,6.85
2019-02-23T08:02:33.034Z,7.45
2019-02-23T08:05:01.875Z,6.60
2019-02-23T08:07:30.858Z,7.97
2019-02-23T08:09:59.730Z,6.75
2019-02-23T08:12:28.598Z,6.70
2019-02-23T08:14:57.843Z,6.85
2019-02-23T08:17:26.886Z,6.75
2019-02-23T08:19:56.343Z,6.40
2019-02-23T08:22:25.347Z,6.50
2019-02-23T08:24:54.366Z,6.78
2019-02-23T08:27:23.466Z,6.28
2019-02-23T08:29:52.460Z,6.50
2019-02-23T08:32:23.442Z,5.65
2019-02-23T08:34:52.397Z,5.65
2019-02-23T08:37:21.215Z,6.62
2019-02-23T08:39:50.055Z,6.25
2019-02-23T08:42:18.916Z,6.65
2019-02-23T08:44:47.771Z,6.62
2019-02-23T08:47:16.631Z,5.72
2019-02-23T08:49:45.651Z,5.45
2019-02-23T08:52:15.822Z,6.12
2019-02-23T08:54:44.593Z,5.45
2019-02-23T08:57:13.471Z,6.12
2019-02-23T08:59:42.513Z,6.10
2019-02-23T09:02:11.644Z,6.10
2019-02-23T09:04:40.576Z,5.42
2019-02-23T09:07:09.544Z,4.80
2019-02-23T09:09:38.494Z,5.58
2019-02-23T09:12:07.440Z,4.75
2019-02-23T09:14:36.391Z,5.87
2019-02-23T09:17:05.400Z,5.80
2019-02-23T09:19:34.299Z,5.67
2019-02-23T09:22:03.142Z,6.20
2019-02-23T09:24:32.078Z,6.05
2019-02-23T09:27:00.935Z,6.22
2019-02-23T09:29:29.900Z,6.47
2019-02-23T09:31:58.821Z,6.00
2019-02-23T09:34:27.726Z,7.00
2019-02-23T09:36:56.618Z,5.53
2019-02-23T09:39:25.411Z,5.90
2019-02-23T09:41:54.173Z,7.40
2019-02-23T09:44:23.070Z,7.20
2019-02-23T09:46:52.139Z,9.23
2019-02-23T09:49:21.035Z,5.58
2019-02-23T09:51:50.095Z,6.20
2019-02-23T09:54:18.931Z,7.22
2019-02-23T09:56:47.711Z,6.62
2019-02-23T09:59:16.495Z,5.87
2019-02-23T10:01:45.277Z,5.45
2019-02-23T10:04:14.129Z,6.67
2019-02-23T10:06:43.097Z,5.58
2019-02-23T10:09:12.079Z,5.83
2019-02-23T10:11:40.971Z,4.47
2019-02-23T10:14:10.084Z,4.62
2019-02-23T10:16:39.329Z,4.85
2019-02-23T10:19:08.379Z,9.50
2019-02-23T10:21:37.256Z,7.50
2019-02-23T10:24:06.443Z,4.80
2019-02-23T10:26:35.389Z,3.98
2019-02-23T10:29:04.291Z,4.22
2019-02-23T10:31:33.188Z,4.53
2019-02-23T10:34:02.025Z,5.30
2019-02-23T10:36:30.943Z,4.67
2019-02-23T10:38:59.873Z,4.85
2019-02-23T10:41:28.957Z,4.40
2019-02-23T10:43:57.963Z,5.15
2019-02-23T10:46:26.929Z,4.17
2019-02-23T10:48:55.901Z,3.98
2019-02-23T10:51:24.739Z,4.03
2019-02-23T10:53:53.806Z,4.75
2019-02-23T10:56:22.605Z,3.80
2019-02-23T10:58:51.538Z,3.72
2019-02-23T11:01:20.553Z,3.90
2019-02-23T11:03:49.403Z,4.08
2019-02-23T11:06:18.287Z,3.65
2019-02-23T11:08:47.280Z,3.55
2019-02-23T11:11:16.240Z,3.22
2019-02-23T11:13:45.145Z,2.90
2019-02-23T11:16:14.268Z,3.00
2019-02-23T11:18:43.071Z,3.40
2019-02-23T11:21:11.999Z,3.30
2019-02-23T11:23:44.159Z,3.30
2019-02-23T11:26:11.627Z,3.62
2019-02-23T11:28:40.688Z,3.80
2019-02-23T11:31:09.852Z,3.67
2019-02-23T11:33:38.681Z,3.95
2019-02-23T11:36:07.691Z,4.80
2019-02-23T11:38:36.702Z,4.25
2019-02-23T11:41:05.755Z,4.00
2019-02-23T11:43:34.573Z,3.73
2019-02-23T11:46:03.469Z,3.92
2019-02-23T11:48:34.851Z,4.30
2019-02-23T11:51:04.267Z,4.83
2019-02-23T11:53:33.075Z,4.13
2019-02-23T11:56:01.865Z,3.80
2019-02-23T11:58:30.629Z,3.57
2019-02-23T12:00:59.575Z,3.97
2019-02-23T12:06:32.187Z,3.83
2019-02-23T12:09:01.955Z,4.80
2019-02-23T12:11:30.881Z,5.23
2019-02-23T12:13:59.709Z,3.90
2019-02-23T12:16:29.281Z,3.80
2019-02-23T12:18:58.109Z,4.63
2019-02-23T12:21:26.894Z,4.83
2019-02-23T12:24:05.483Z,4.67
2019-02-23T12:26:26.163Z,4.70
2019-02-23T12:28:54.967Z,4.00
2019-02-23T12:31:23.901Z,3.77
2019-02-23T12:33:52.729Z,4.77
2019-02-23T12:36:21.617Z,5.07
2019-02-23T12:38:50.611Z,3.90
2019-02-23T12:41:19.437Z,4.97
2019-02-23T12:43:48.462Z,4.43
2019-02-23T12:46:17.399Z,5.10
2019-02-23T12:48:46.313Z,4.87
2019-02-23T12:51:15.313Z,5.07
2019-02-23T12:53:44.336Z,5.10
2019-02-23T12:56:13.197Z,4.93
2019-02-23T12:58:42.055Z,5.57
2019-02-23T13:01:10.872Z,4.67
2019-02-23T13:03:39.673Z,5.47
2019-02-23T13:06:08.514Z,4.43
2019-02-23T13:09:24.808Z,3.87
2019-02-23T13:12:06.909Z,4.53
2019-02-23T13:15:09.031Z,5.53
2019-02-23T13:18:01.242Z,5.00
2019-02-23T13:21:17.300Z,4.83
2019-02-23T13:24:44.567Z,5.20
2019-02-23T13:27:23.521Z,5.50
2019-02-23T13:30:39.368Z,4.40
2019-02-23T13:33:47.068Z,4.10
2019-02-23T13:36:49.416Z,5.77
2019-02-23T13:39:42.165Z,6.03
2019-02-23T13:42:50.378Z,5.67
2019-02-23T13:46:05.607Z,4.50
2019-02-23T13:49:31.587Z,4.83
2019-02-23T13:52:24.773Z,5.10
2019-02-23T13:55:39.886Z,8.30
2019-02-23T13:58:54.221Z,7.00
2019-02-23T14:01:50.495Z,6.57
2019-02-23T14:05:12.503Z,4.10
2019-02-23T14:08:12.155Z,4.60
2019-02-23T14:11:11.407Z,4.60
2019-02-23T14:14:17.182Z,4.47
2019-02-23T14:17:03.747Z,3.90
2019-02-23T14:19:49.260Z,4.67
2019-02-23T14:22:59.973Z,5.83
2019-02-23T14:26:13.427Z,4.30
2019-02-23T14:28:53.144Z,4.47
2019-02-23T14:31:31.954Z,4.37
2019-02-23T14:34:17.772Z,5.40
2019-02-23T14:37:11.849Z,4.50
2019-02-23T14:40:01.957Z,5.07
2019-02-23T14:43:00.621Z,4.33
2019-02-23T14:45:49.433Z,3.60
2019-02-23T14:48:53.986Z,4.20
2019-02-23T14:51:46.426Z,4.07
2019-02-23T14:54:23.522Z,4.57
2019-02-23T14:57:27.277Z,4.27
2019-02-23T15:00:31.006Z,4.50
2019-02-23T15:03:41.271Z,5.80
2019-02-23T15:06:54.563Z,3.60
2019-02-23T15:09:37.010Z,4.20
2019-02-23T15:12:29.545Z,4.67
2019-02-23T15:15:22.946Z,3.50
2019-02-23T15:18:25.239Z,4.10
2019-02-23T15:21:04.850Z,4.17
2019-02-23T15:23:54.329Z,3.90
2019-02-23T15:27:00.774Z,5.83
2019-02-23T15:30:08.102Z,5.00
2019-02-23T15:33:11.032Z,5.17
2019-02-23T15:36:00.342Z,3.70
2019-02-23T15:39:34.546Z,4.70
2019-02-23T15:43:00.080Z,5.07
2019-02-23T15:46:13.203Z,5.10
2019-02-23T15:49:06.425Z,5.13
2019-02-23T15:51:35.294Z,4.23
2019-02-23T15:54:04.510Z,4.13
2019-02-23T15:56:33.410Z,4.30
2019-02-23T15:59:02.304Z,4.35
2019-02-23T16:01:31.313Z,4.47
2019-02-23T16:04:00.136Z,5.50
2019-02-23T16:06:31.542Z,4.30
2019-02-23T16:08:59.547Z,4.60
2019-02-23T16:11:28.431Z,4.17
2019-02-23T16:13:57.426Z,3.62
2019-02-23T16:16:26.340Z,4.63
2019-02-23T16:18:55.215Z,3.80
2019-02-23T16:21:24.036Z,4.85
2019-02-23T16:23:52.889Z,5.17
2019-02-23T16:26:21.750Z,5.50
2019-02-23T16:28:50.576Z,5.97
2019-02-23T16:31:19.387Z,5.83
2019-02-23T16:33:48.342Z,6.30
2019-02-23T16:36:17.240Z,6.00
2019-02-23T16:38:46.026Z,4.80
2019-02-23T16:41:14.830Z,5.37
2019-02-23T16:43:43.636Z,6.17
2019-02-23T16:46:12.518Z,5.62
2019-02-23T16:48:41.340Z,6.50
2019-02-23T16:51:10.310Z,9.08
2019-02-23T16:53:39.086Z,6.58
2019-02-23T16:56:07.980Z,6.25
2019-02-23T16:58:36.876Z,6.17
2019-02-23T17:01:05.690Z,4.58
2019-02-23T17:03:34.586Z,5.35
2019-02-23T17:06:03.446Z,5.83
2019-02-23T17:08:32.279Z,5.85
2019-02-23T17:11:01.168Z,6.55
2019-02-23T17:13:29.990Z,6.78
2019-02-23T17:15:58.837Z,6.60
2019-02-23T17:18:27.620Z,6.90
2019-02-23T17:20:56.476Z,6.35
2019-02-23T17:23:25.253Z,9.30
2019-02-23T17:26:03.742Z,7.53
2019-02-23T17:28:24.716Z,7.10
2019-02-23T17:30:53.610Z,6.87
2019-02-23T17:33:22.502Z,6.22
2019-02-23T17:35:51.336Z,7.20
2019-02-23T17:38:20.215Z,7.17
2019-02-23T17:40:49.079Z,7.37
2019-02-23T17:43:17.962Z,7.90
2019-02-23T17:45:46.789Z,13.40
2019-02-23T17:48:15.640Z,7.25
2019-02-23T17:50:44.530Z,7.15
2019-02-23T17:53:13.418Z,7.05
2019-02-23T17:55:42.278Z,7.78
2019-02-23T17:58:11.078Z,9.60
2019-02-23T18:00:39.910Z,7.83
2019-02-23T18:03:08.728Z,8.60
2019-02-23T18:05:37.619Z,8.05
2019-02-23T18:08:06.467Z,7.95
2019-02-23T18:10:35.407Z,7.37
2019-02-23T18:13:04.219Z,6.03
2019-02-23T18:15:33.023Z,7.47
2019-02-23T18:18:01.832Z,8.05
2019-02-23T18:20:30.904Z,15.80
2019-02-23T18:22:59.764Z,8.63
2019-02-23T18:25:28.635Z,8.70
2019-02-23T18:27:57.439Z,8.05
2019-02-23T18:30:26.280Z,7.40
2019-02-23T18:32:55.085Z,7.50
2019-02-23T18:35:23.889Z,6.60
2019-02-23T18:37:52.679Z,9.00
2019-02-23T18:40:21.467Z,7.17
2019-02-23T18:42:50.266Z,7.55
2019-02-23T18:45:19.209Z,7.87
2019-02-23T18:47:48.137Z,8.20
2019-02-23T18:50:17.054Z,6.53
2019-02-23T18:52:45.868Z,8.03
2019-02-23T18:55:14.891Z,7.10
2019-02-23T18:57:43.692Z,7.92
2019-02-23T19:00:12.969Z,9.05
2019-02-23T19:02:41.907Z,8.75
2019-02-23T19:05:11.759Z,7.28
2019-02-23T19:07:40.689Z,7.95
2019-02-23T19:10:10.933Z,7.85
2019-02-23T19:12:42.839Z,7.53
2019-02-23T19:15:12.048Z,8.28
2019-02-23T19:17:42.345Z,10.38
2019-02-23T19:20:12.111Z,8.80
2019-02-23T19:22:41.034Z,8.18
2019-02-23T19:25:14.874Z,7.97
2019-02-23T19:27:44.001Z,8.03
2019-02-23T19:30:12.957Z,9.25
2019-02-23T19:32:46.917Z,8.50
2019-02-23T19:35:15.793Z,8.40
2019-02-23T19:37:44.965Z,8.65
2019-02-23T19:40:17.315Z,10.18
2019-02-23T19:42:46.894Z,9.45
2019-02-23T19:45:16.215Z,8.03
2019-02-23T19:47:49.919Z,9.25
2019-02-23T19:50:25.037Z,10.23
2019-02-23T19:52:54.319Z,8.83
2019-02-23T19:55:23.703Z,8.63
2019-02-23T19:57:52.791Z,9.03
2019-02-23T20:00:21.734Z,10.08
2019-02-23T20:02:50.655Z,9.08
2019-02-23T20:05:19.895Z,15.98
2019-02-23T20:07:52.654Z,16.42
2019-02-23T20:10:25.951Z,10.38
2019-02-23T20:12:55.885Z,10.15
2019-02-23T20:15:24.818Z,10.50
2019-02-23T20:17:53.706Z,9.03
2019-02-23T20:20:22.571Z,9.10
2019-02-23T20:22:51.783Z,9.80
2019-02-23T20:25:20.723Z,9.63
2019-02-23T20:27:49.651Z,9.75
2019-02-23T20:30:18.943Z,10.53
2019-02-23T20:32:49.290Z,8.95
2019-02-23T20:35:18.260Z,9.43
2019-02-23T20:37:47.179Z,9.68
2019-02-23T20:40:16.119Z,10.28
2019-02-23T20:42:44.969Z,17.40
2019-02-23T20:45:14.517Z,21.90
2019-02-23T20:47:43.454Z,11.18
2019-02-23T20:50:12.308Z,9.53
2019-02-23T20:52:41.134Z,10.38
2019-02-23T20:55:10.965Z,8.80
2019-02-23T20:57:39.790Z,8.65
2019-02-23T21:00:13.934Z,8.55
2019-02-23T21:02:40.047Z,7.03
2019-02-23T21:05:09.425Z,8.93
2019-02-23T21:07:38.378Z,8.75
2019-02-23T21:10:07.560Z,7.42
2019-02-23T21:12:36.707Z,8.08
2019-02-23T21:15:07.963Z,9.88
2019-02-23T21:17:45.205Z,8.50
2019-02-23T21:20:14.214Z,9.73
2019-02-23T21:22:46.998Z,8.80
2019-02-23T21:25:16.583Z,6.95
2019-02-23T21:27:45.769Z,8.45
2019-02-23T21:30:14.594Z,9.70
2019-02-23T21:32:43.665Z,7.90
2019-02-23T21:35:12.459Z,8.23
2019-02-23T21:37:41.576Z,9.05
2019-02-23T21:40:12.090Z,7.60
2019-02-23T21:42:41.912Z,7.25
2019-02-23T21:45:10.849Z,7.65
2019-02-23T21:47:39.750Z,7.58
2019-02-23T21:50:09.424Z,8.08
2019-02-23T21:52:38.274Z,8.55
2019-02-23T21:55:07.552Z,8.98
2019-02-23T21:57:36.614Z,8.78
2019-02-23T22:00:05.751Z,8.75
2019-02-23T22:02:34.545Z,10.70
2019-02-23T22:05:11.651Z,9.55
2019-02-23T22:07:33.985Z,9.83
2019-02-23T22:10:02.978Z,10.38
2019-02-23T22:12:31.802Z,9.18
2019-02-23T22:15:00.761Z,10.60
2019-02-23T22:17:29.629Z,12.20
2019-02-23T22:19:58.611Z,10.90
2019-02-23T22:22:27.488Z,12.60
2019-02-23T22:24:56.362Z,10.90
2019-02-23T22:27:31.112Z,12.65
2019-02-23T22:29:55.884Z,14.05
2019-02-23T22:32:24.739Z,11.63
2019-02-23T22:34:53.565Z,12.85
2019-02-23T22:37:22.475Z,11.65
2019-02-23T22:39:51.371Z,12.90
2019-02-23T22:42:20.156Z,11.33
2019-02-23T22:44:49.020Z,12.18
2019-02-23T22:47:17.878Z,10.23
2019-02-23T22:49:46.707Z,11.48
2019-02-23T22:52:15.653Z,10.95
2019-02-23T22:54:44.449Z,10.75
2019-02-23T22:57:13.608Z,10.28
2019-02-23T22:59:42.626Z,11.53
2019-02-23T23:02:11.805Z,13.55
2019-02-23T23:04:40.669Z,10.63
2019-02-23T23:07:09.547Z,13.95
2019-02-23T23:09:38.346Z,11.08
2019-02-23T23:12:08.590Z,10.50
2019-02-23T23:14:37.455Z,10.65
2019-02-23T23:17:06.583Z,10.85
2019-02-23T23:19:35.457Z,11.75
2019-02-23T23:22:04.257Z,11.50
2019-02-23T23:24:35.770Z,10.95
2019-02-23T23:27:04.721Z,11.88
2019-02-23T23:29:33.778Z,11.53
2019-02-23T23:32:02.612Z,11.48
2019-02-23T23:34:31.608Z,11.38
2019-02-23T23:37:00.655Z,11.68
2019-02-23T23:39:29.521Z,11.20
2019-02-23T23:41:58.337Z,11.10
2019-02-23T23:44:27.162Z,11.55
2019-02-23T23:46:56.025Z,10.32
2019-02-23T23:49:25.155Z,12.65
2019-02-23T23:51:54.227Z,12.60
2019-02-23T23:54:23.215Z,12.35
2019-02-23T23:56:52.061Z,12.50
2019-02-23T23:59:20.945Z,11.48
